Terminal Aerodrome Forecast
Issued by NWS Memphis, TN

Home | Current Version | Previous Version | Text Only | Print | Product List | Glossary On
Versions: 1 2 3 4 5 6 7 8 9 10 11 12 13 14 15 16
000
FTUS44 KMEG 280232 AAA
TAFJBR
TAF AMD
KJBR 280232Z 2803/2824 18010KT P6SM VCSH SCT006 OVC040
      TEMPO 2809/2813 6SM BR BKN006
     FM281300 19009KT P6SM BKN015 BKN040
     FM281600 19010KT P6SM BKN045=

USA.gov is the U.S. government's official web portal to all federal, state and local government web resources and services.